sensor_id;sensor_type;location;lat;lon;timestamp;P1;durP1;ratioP1;P2;durP2;ratioP2
7675;SDS011;3880;51.464;-2.566;2022-12-07T00:01:41;28.33;;;16.73;;
7675;SDS011;3880;51.464;-2.566;2022-12-07T00:04:09;29.90;;;16.97;;
7675;SDS011;3880;51.464;-2.566;2022-12-07T00:06:40;23.03;;;15.63;;
7675;SDS011;3880;51.464;-2.566;2022-12-07T00:09:11;22.40;;;15.63;;
7675;SDS011;3880;51.464;-2.566;2022-12-07T00:11:39;24.00;;;16.70;;
7675;SDS011;3880;51.464;-2.566;2022-12-07T00:14:07;23.00;;;14.93;;
7675;SDS011;3880;51.464;-2.566;2022-12-07T00:16:37;28.23;;;15.83;;
7675;SDS011;3880;51.464;-2.566;2022-12-07T00:19:08;25.87;;;16.83;;
7675;SDS011;3880;51.464;-2.566;2022-12-07T00:21:37;28.37;;;16.53;;
7675;SDS011;3880;51.464;-2.566;2022-12-07T00:24:06;27.87;;;15.83;;
7675;SDS011;3880;51.464;-2.566;2022-12-07T00:26:33;25.17;;;17.60;;
7675;SDS011;3880;51.464;-2.566;2022-12-07T00:29:02;36.00;;;18.17;;
7675;SDS011;3880;51.464;-2.566;2022-12-07T00:31:33;24.90;;;16.30;;
7675;SDS011;3880;51.464;-2.566;2022-12-07T00:34:03;25.37;;;16.40;;
7675;SDS011;3880;51.464;-2.566;2022-12-07T00:36:31;28.27;;;18.60;;
7675;SDS011;3880;51.464;-2.566;2022-12-07T00:38:58;27.50;;;17.47;;
7675;SDS011;3880;51.464;-2.566;2022-12-07T00:41:28;29.93;;;15.93;;
7675;SDS011;3880;51.464;-2.566;2022-12-07T00:43:56;28.07;;;16.83;;
7675;SDS011;3880;51.464;-2.566;2022-12-07T00:46:24;29.37;;;16.87;;
7675;SDS011;3880;51.464;-2.566;2022-12-07T00:48:57;29.67;;;18.07;;
7675;SDS011;3880;51.464;-2.566;2022-12-07T00:51:24;28.43;;;17.57;;
7675;SDS011;3880;51.464;-2.566;2022-12-07T00:53:52;27.03;;;16.33;;
7675;SDS011;3880;51.464;-2.566;2022-12-07T00:56:19;27.93;;;17.00;;
7675;SDS011;3880;51.464;-2.566;2022-12-07T00:58:52;24.70;;;16.50;;
7675;SDS011;3880;51.464;-2.566;2022-12-07T01:01:21;30.73;;;17.53;;
7675;SDS011;3880;51.464;-2.566;2022-12-07T01:03:48;25.17;;;16.47;;
7675;SDS011;3880;51.464;-2.566;2022-12-07T01:06:15;30.27;;;17.40;;
7675;SDS011;3880;51.464;-2.566;2022-12-07T01:08:44;24.07;;;15.23;;
7675;SDS011;3880;51.464;-2.566;2022-12-07T01:11:12;28.13;;;17.10;;
7675;SDS011;3880;51.464;-2.566;2022-12-07T01:13:42;24.97;;;16.70;;
7675;SDS011;3880;51.464;-2.566;2022-12-07T01:16:12;29.93;;;17.63;;
7675;SDS011;3880;51.464;-2.566;2022-12-07T01:18:40;31.73;;;17.73;;
7675;SDS011;3880;51.464;-2.566;2022-12-07T01:21:10;29.23;;;18.53;;
7675;SDS011;3880;51.464;-2.566;2022-12-07T01:23:39;26.63;;;16.20;;
7675;SDS011;3880;51.464;-2.566;2022-12-07T01:26:09;27.97;;;16.70;;
7675;SDS011;3880;51.464;-2.566;2022-12-07T01:28:38;32.47;;;17.53;;
7675;SDS011;3880;51.464;-2.566;2022-12-07T01:31:06;29.10;;;15.97;;
7675;SDS011;3880;51.464;-2.566;2022-12-07T01:33:36;31.00;;;17.20;;
7675;SDS011;3880;51.464;-2.566;2022-12-07T01:36:05;24.33;;;16.70;;
7675;SDS011;3880;51.464;-2.566;2022-12-07T01:38:34;24.87;;;16.67;;
7675;SDS011;3880;51.464;-2.566;2022-12-07T01:41:01;29.93;;;16.50;;
7675;SDS011;3880;51.464;-2.566;2022-12-07T01:43:29;21.57;;;15.10;;
7675;SDS011;3880;51.464;-2.566;2022-12-07T01:45:57;31.20;;;18.10;;
7675;SDS011;3880;51.464;-2.566;2022-12-07T01:48:26;28.23;;;16.23;;
7675;SDS011;3880;51.464;-2.566;2022-12-07T01:50:59;23.27;;;15.00;;
7675;SDS011;3880;51.464;-2.566;2022-12-07T01:53:29;29.10;;;16.07;;
7675;SDS011;3880;51.464;-2.566;2022-12-07T01:55:58;23.33;;;14.90;;
7675;SDS011;3880;51.464;-2.566;2022-12-07T01:58:25;23.90;;;15.67;;
7675;SDS011;3880;51.464;-2.566;2022-12-07T02:00:53;28.87;;;16.43;;
7675;SDS011;3880;51.464;-2.566;2022-12-07T02:03:21;23.23;;;15.73;;
7675;SDS011;3880;51.464;-2.566;2022-12-07T02:05:52;35.30;;;17.17;;
7675;SDS011;3880;51.464;-2.566;2022-12-07T02:08:21;31.23;;;16.90;;
7675;SDS011;3880;51.464;-2.566;2022-12-07T02:10:48;27.03;;;15.63;;
7675;SDS011;3880;51.464;-2.566;2022-12-07T02:13:16;26.33;;;16.03;;
7675;SDS011;3880;51.464;-2.566;2022-12-07T02:15:59;31.17;;;18.00;;
7675;SDS011;3880;51.464;-2.566;2022-12-07T02:18:45;26.80;;;16.97;;
7675;SDS011;3880;51.464;-2.566;2022-12-07T02:21:29;21.53;;;16.23;;
7675;SDS011;3880;51.464;-2.566;2022-12-07T02:24:22;30.93;;;16.50;;
7675;SDS011;3880;51.464;-2.566;2022-12-07T02:27:11;28.33;;;19.13;;
7675;SDS011;3880;51.464;-2.566;2022-12-07T02:29:56;33.10;;;19.23;;
7675;SDS011;3880;51.464;-2.566;2022-12-07T02:32:27;33.07;;;20.20;;
7675;SDS011;3880;51.464;-2.566;2022-12-07T02:35:05;30.63;;;18.20;;
7675;SDS011;3880;51.464;-2.566;2022-12-07T02:37:37;27.13;;;17.13;;
7675;SDS011;3880;51.464;-2.566;2022-12-07T02:40:11;27.10;;;16.27;;
7675;SDS011;3880;51.464;-2.566;2022-12-07T02:42:49;25.27;;;16.03;;
7675;SDS011;3880;51.464;-2.566;2022-12-07T02:45:22;30.63;;;16.43;;
7675;SDS011;3880;51.464;-2.566;2022-12-07T02:47:54;26.30;;;16.30;;
7675;SDS011;3880;51.464;-2.566;2022-12-07T02:50:24;31.47;;;17.47;;
7675;SDS011;3880;51.464;-2.566;2022-12-07T02:52:53;28.20;;;17.13;;
7675;SDS011;3880;51.464;-2.566;2022-12-07T02:55:22;29.53;;;16.17;;
7675;SDS011;3880;51.464;-2.566;2022-12-07T02:57:58;23.30;;;14.83;;
7675;SDS011;3880;51.464;-2.566;2022-12-07T03:00:43;22.43;;;15.23;;
7675;SDS011;3880;51.464;-2.566;2022-12-07T03:03:15;25.93;;;15.90;;
7675;SDS011;3880;51.464;-2.566;2022-12-07T03:05:45;31.73;;;15.90;;
7675;SDS011;3880;51.464;-2.566;2022-12-07T03:08:30;29.47;;;17.70;;
7675;SDS011;3880;51.464;-2.566;2022-12-07T03:11:11;27.83;;;15.93;;
7675;SDS011;3880;51.464;-2.566;2022-12-07T03:13:41;28.57;;;14.57;;
7675;SDS011;3880;51.464;-2.566;2022-12-07T03:16:15;30.37;;;15.43;;
7675;SDS011;3880;51.464;-2.566;2022-12-07T03:18:45;25.70;;;15.63;;
7675;SDS011;3880;51.464;-2.566;2022-12-07T03:21:17;26.37;;;16.50;;
7675;SDS011;3880;51.464;-2.566;2022-12-07T03:23:48;26.43;;;16.30;;
7675;SDS011;3880;51.464;-2.566;2022-12-07T03:26:18;26.67;;;15.90;;
7675;SDS011;3880;51.464;-2.566;2022-12-07T03:28:48;23.97;;;15.70;;
7675;SDS011;3880;51.464;-2.566;2022-12-07T03:31:21;23.10;;;14.57;;
7675;SDS011;3880;51.464;-2.566;2022-12-07T03:33:54;24.00;;;16.23;;
7675;SDS011;3880;51.464;-2.566;2022-12-07T03:36:28;25.03;;;15.73;;
7675;SDS011;3880;51.464;-2.566;2022-12-07T03:39:00;28.03;;;15.83;;
7675;SDS011;3880;51.464;-2.566;2022-12-07T03:41:34;30.83;;;16.47;;
7675;SDS011;3880;51.464;-2.566;2022-12-07T03:44:07;27.03;;;15.90;;
7675;SDS011;3880;51.464;-2.566;2022-12-07T03:46:37;32.13;;;17.27;;
7675;SDS011;3880;51.464;-2.566;2022-12-07T03:49:11;24.80;;;16.07;;
7675;SDS011;3880;51.464;-2.566;2022-12-07T03:51:45;27.60;;;17.07;;
7675;SDS011;3880;51.464;-2.566;2022-12-07T03:54:18;27.43;;;16.50;;
7675;SDS011;3880;51.464;-2.566;2022-12-07T03:56:49;31.87;;;17.13;;
7675;SDS011;3880;51.464;-2.566;2022-12-07T03:59:18;32.73;;;16.30;;
7675;SDS011;3880;51.464;-2.566;2022-12-07T04:01:52;24.83;;;15.77;;
7675;SDS011;3880;51.464;-2.566;2022-12-07T04:04:21;28.43;;;16.40;;
7675;SDS011;3880;51.464;-2.566;2022-12-07T04:06:49;25.53;;;16.17;;
7675;SDS011;3880;51.464;-2.566;2022-12-07T04:09:16;28.47;;;15.90;;
7675;SDS011;3880;51.464;-2.566;2022-12-07T04:11:43;24.93;;;17.33;;
7675;SDS011;3880;51.464;-2.566;2022-12-07T04:14:10;29.03;;;16.57;;
7675;SDS011;3880;51.464;-2.566;2022-12-07T04:16:46;27.67;;;16.73;;
7675;SDS011;3880;51.464;-2.566;2022-12-07T04:19:16;25.00;;;16.37;;
7675;SDS011;3880;51.464;-2.566;2022-12-07T04:21:44;26.47;;;16.67;;
7675;SDS011;3880;51.464;-2.566;2022-12-07T04:24:12;20.40;;;14.20;;
7675;SDS011;3880;51.464;-2.566;2022-12-07T04:26:41;30.07;;;15.60;;
7675;SDS011;3880;51.464;-2.566;2022-12-07T04:29:11;27.77;;;16.03;;
7675;SDS011;3880;51.464;-2.566;2022-12-07T04:31:39;24.47;;;15.27;;
7675;SDS011;3880;51.464;-2.566;2022-12-07T04:34:06;26.40;;;16.23;;
7675;SDS011;3880;51.464;-2.566;2022-12-07T04:36:35;26.50;;;16.47;;
7675;SDS011;3880;51.464;-2.566;2022-12-07T04:39:02;26.30;;;16.67;;
7675;SDS011;3880;51.464;-2.566;2022-12-07T04:41:30;30.00;;;15.87;;
7675;SDS011;3880;51.464;-2.566;2022-12-07T04:43:58;25.60;;;15.17;;
7675;SDS011;3880;51.464;-2.566;2022-12-07T04:46:27;25.27;;;16.20;;
7675;SDS011;3880;51.464;-2.566;2022-12-07T04:48:55;28.80;;;17.50;;
7675;SDS011;3880;51.464;-2.566;2022-12-07T04:51:23;26.97;;;16.60;;
7675;SDS011;3880;51.464;-2.566;2022-12-07T04:53:53;30.57;;;17.13;;
7675;SDS011;3880;51.464;-2.566;2022-12-07T04:56:21;29.57;;;17.03;;
7675;SDS011;3880;51.464;-2.566;2022-12-07T04:58:48;26.30;;;15.87;;
7675;SDS011;3880;51.464;-2.566;2022-12-07T05:01:17;27.13;;;17.73;;
7675;SDS011;3880;51.464;-2.566;2022-12-07T05:03:44;33.47;;;18.03;;
7675;SDS011;3880;51.464;-2.566;2022-12-07T05:06:11;30.07;;;17.50;;
7675;SDS011;3880;51.464;-2.566;2022-12-07T05:08:40;29.37;;;16.60;;
7675;SDS011;3880;51.464;-2.566;2022-12-07T05:11:09;32.00;;;18.27;;
7675;SDS011;3880;51.464;-2.566;2022-12-07T05:13:58;29.70;;;17.90;;
7675;SDS011;3880;51.464;-2.566;2022-12-07T05:16:25;34.77;;;20.60;;
7675;SDS011;3880;51.464;-2.566;2022-12-07T05:18:52;34.17;;;20.33;;
7675;SDS011;3880;51.464;-2.566;2022-12-07T05:21:19;32.87;;;18.60;;
7675;SDS011;3880;51.464;-2.566;2022-12-07T05:23:46;31.80;;;20.27;;
7675;SDS011;3880;51.464;-2.566;2022-12-07T05:26:14;34.37;;;18.67;;
7675;SDS011;3880;51.464;-2.566;2022-12-07T05:28:42;36.20;;;19.60;;
7675;SDS011;3880;51.464;-2.566;2022-12-07T05:31:09;34.33;;;18.50;;
7675;SDS011;3880;51.464;-2.566;2022-12-07T05:33:36;28.50;;;17.63;;
7675;SDS011;3880;51.464;-2.566;2022-12-07T05:36:04;31.47;;;19.60;;
7675;SDS011;3880;51.464;-2.566;2022-12-07T05:38:32;33.00;;;17.73;;
7675;SDS011;3880;51.464;-2.566;2022-12-07T05:41:00;28.90;;;17.10;;
7675;SDS011;3880;51.464;-2.566;2022-12-07T05:43:29;31.43;;;18.80;;
7675;SDS011;3880;51.464;-2.566;2022-12-07T05:45:56;32.40;;;16.50;;
7675;SDS011;3880;51.464;-2.566;2022-12-07T05:48:23;27.90;;;17.03;;
7675;SDS011;3880;51.464;-2.566;2022-12-07T05:50:51;26.20;;;17.60;;
7675;SDS011;3880;51.464;-2.566;2022-12-07T05:53:18;28.23;;;17.17;;
7675;SDS011;3880;51.464;-2.566;2022-12-07T05:55:45;26.67;;;17.10;;
7675;SDS011;3880;51.464;-2.566;2022-12-07T05:58:12;33.57;;;18.60;;
7675;SDS011;3880;51.464;-2.566;2022-12-07T06:00:57;32.53;;;18.87;;
7675;SDS011;3880;51.464;-2.566;2022-12-07T06:03:24;42.77;;;20.43;;
7675;SDS011;3880;51.464;-2.566;2022-12-07T06:05:51;32.30;;;18.60;;
7675;SDS011;3880;51.464;-2.566;2022-12-07T06:08:18;36.23;;;19.70;;
7675;SDS011;3880;51.464;-2.566;2022-12-07T06:10:46;34.73;;;20.40;;
7675;SDS011;3880;51.464;-2.566;2022-12-07T06:13:35;31.53;;;18.97;;
7675;SDS011;3880;51.464;-2.566;2022-12-07T06:16:03;31.77;;;18.97;;
7675;SDS011;3880;51.464;-2.566;2022-12-07T06:18:31;27.77;;;18.63;;
7675;SDS011;3880;51.464;-2.566;2022-12-07T06:20:59;37.90;;;18.70;;
7675;SDS011;3880;51.464;-2.566;2022-12-07T06:23:26;29.93;;;18.37;;
7675;SDS011;3880;51.464;-2.566;2022-12-07T06:25:53;32.10;;;18.40;;
7675;SDS011;3880;51.464;-2.566;2022-12-07T06:28:20;30.90;;;19.43;;
7675;SDS011;3880;51.464;-2.566;2022-12-07T06:30:47;30.17;;;18.07;;
7675;SDS011;3880;51.464;-2.566;2022-12-07T06:33:23;29.73;;;18.40;;
7675;SDS011;3880;51.464;-2.566;2022-12-07T06:35:51;28.63;;;17.57;;
7675;SDS011;3880;51.464;-2.566;2022-12-07T06:38:18;31.77;;;18.93;;
7675;SDS011;3880;51.464;-2.566;2022-12-07T06:40:45;31.47;;;18.97;;
7675;SDS011;3880;51.464;-2.566;2022-12-07T06:43:14;33.77;;;18.93;;
7675;SDS011;3880;51.464;-2.566;2022-12-07T06:45:41;35.23;;;18.97;;
7675;SDS011;3880;51.464;-2.566;2022-12-07T06:48:09;29.77;;;17.30;;
7675;SDS011;3880;51.464;-2.566;2022-12-07T06:50:37;32.47;;;18.87;;
7675;SDS011;3880;51.464;-2.566;2022-12-07T06:53:04;28.73;;;18.63;;
7675;SDS011;3880;51.464;-2.566;2022-12-07T06:55:31;29.07;;;18.23;;
7675;SDS011;3880;51.464;-2.566;2022-12-07T06:57:58;33.43;;;17.47;;
7675;SDS011;3880;51.464;-2.566;2022-12-07T07:00:26;32.27;;;18.83;;
7675;SDS011;3880;51.464;-2.566;2022-12-07T07:02:53;42.50;;;19.57;;
7675;SDS011;3880;51.464;-2.566;2022-12-07T07:05:20;33.57;;;18.57;;
7675;SDS011;3880;51.464;-2.566;2022-12-07T07:07:49;26.90;;;16.47;;
7675;SDS011;3880;51.464;-2.566;2022-12-07T07:10:16;32.53;;;17.33;;
7675;SDS011;3880;51.464;-2.566;2022-12-07T07:12:43;36.43;;;17.87;;
7675;SDS011;3880;51.464;-2.566;2022-12-07T07:15:10;29.87;;;18.60;;
7675;SDS011;3880;51.464;-2.566;2022-12-07T07:17:37;32.43;;;17.63;;
7675;SDS011;3880;51.464;-2.566;2022-12-07T07:20:05;36.87;;;17.63;;
7675;SDS011;3880;51.464;-2.566;2022-12-07T07:22:33;32.47;;;18.70;;
7675;SDS011;3880;51.464;-2.566;2022-12-07T07:25:01;32.47;;;19.73;;
7675;SDS011;3880;51.464;-2.566;2022-12-07T07:27:28;41.33;;;29.20;;
7675;SDS011;3880;51.464;-2.566;2022-12-07T07:29:55;29.33;;;19.50;;
7675;SDS011;3880;51.464;-2.566;2022-12-07T07:32:22;32.00;;;20.30;;
7675;SDS011;3880;51.464;-2.566;2022-12-07T07:34:49;27.27;;;19.13;;
7675;SDS011;3880;51.464;-2.566;2022-12-07T07:37:16;29.97;;;20.50;;
7675;SDS011;3880;51.464;-2.566;2022-12-07T07:39:43;34.47;;;20.87;;
7675;SDS011;3880;51.464;-2.566;2022-12-07T07:42:12;39.90;;;21.20;;
7675;SDS011;3880;51.464;-2.566;2022-12-07T07:44:39;48.23;;;23.47;;
7675;SDS011;3880;51.464;-2.566;2022-12-07T07:47:06;37.60;;;22.07;;
7675;SDS011;3880;51.464;-2.566;2022-12-07T07:49:33;35.07;;;21.17;;
7675;SDS011;3880;51.464;-2.566;2022-12-07T07:52:00;35.70;;;20.63;;
7675;SDS011;3880;51.464;-2.566;2022-12-07T07:54:27;36.33;;;21.30;;
7675;SDS011;3880;51.464;-2.566;2022-12-07T07:56:55;35.73;;;21.07;;
7675;SDS011;3880;51.464;-2.566;2022-12-07T07:59:23;42.00;;;21.23;;
7675;SDS011;3880;51.464;-2.566;2022-12-07T08:01:50;39.20;;;22.10;;
7675;SDS011;3880;51.464;-2.566;2022-12-07T08:04:18;66.93;;;44.90;;
7675;SDS011;3880;51.464;-2.566;2022-12-07T08:06:45;36.07;;;24.00;;
7675;SDS011;3880;51.464;-2.566;2022-12-07T08:09:12;35.53;;;21.47;;
7675;SDS011;3880;51.464;-2.566;2022-12-07T08:11:39;39.13;;;24.87;;
7675;SDS011;3880;51.464;-2.566;2022-12-07T08:14:06;41.20;;;24.27;;
7675;SDS011;3880;51.464;-2.566;2022-12-07T08:16:34;37.37;;;20.70;;
7675;SDS011;3880;51.464;-2.566;2022-12-07T08:19:01;35.63;;;20.77;;
7675;SDS011;3880;51.464;-2.566;2022-12-07T08:21:31;39.80;;;20.60;;
7675;SDS011;3880;51.464;-2.566;2022-12-07T08:23:58;44.93;;;24.33;;
7675;SDS011;3880;51.464;-2.566;2022-12-07T08:26:25;36.93;;;22.87;;
7675;SDS011;3880;51.464;-2.566;2022-12-07T08:28:52;35.40;;;21.20;;
7675;SDS011;3880;51.464;-2.566;2022-12-07T08:31:20;38.63;;;21.40;;
7675;SDS011;3880;51.464;-2.566;2022-12-07T08:33:48;42.17;;;21.77;;
7675;SDS011;3880;51.464;-2.566;2022-12-07T08:36:15;37.43;;;21.60;;
7675;SDS011;3880;51.464;-2.566;2022-12-07T08:38:43;40.37;;;19.90;;
7675;SDS011;3880;51.464;-2.566;2022-12-07T08:41:11;39.17;;;20.73;;
7675;SDS011;3880;51.464;-2.566;2022-12-07T08:43:38;41.23;;;21.93;;
7675;SDS011;3880;51.464;-2.566;2022-12-07T08:46:07;43.97;;;22.77;;
7675;SDS011;3880;51.464;-2.566;2022-12-07T08:48:37;42.40;;;21.97;;
7675;SDS011;3880;51.464;-2.566;2022-12-07T08:51:18;39.43;;;21.30;;
7675;SDS011;3880;51.464;-2.566;2022-12-07T08:53:45;43.10;;;24.43;;
7675;SDS011;3880;51.464;-2.566;2022-12-07T08:56:13;44.27;;;23.63;;
7675;SDS011;3880;51.464;-2.566;2022-12-07T08:58:40;42.13;;;25.00;;
7675;SDS011;3880;51.464;-2.566;2022-12-07T09:01:07;45.63;;;25.37;;
7675;SDS011;3880;51.464;-2.566;2022-12-07T09:03:35;47.93;;;24.30;;
7675;SDS011;3880;51.464;-2.566;2022-12-07T09:06:12;46.97;;;23.73;;
7675;SDS011;3880;51.464;-2.566;2022-12-07T09:08:51;44.27;;;22.53;;
7675;SDS011;3880;51.464;-2.566;2022-12-07T09:11:27;48.97;;;24.03;;
7675;SDS011;3880;51.464;-2.566;2022-12-07T09:13:55;49.97;;;22.97;;
7675;SDS011;3880;51.464;-2.566;2022-12-07T09:16:22;39.47;;;22.63;;
7675;SDS011;3880;51.464;-2.566;2022-12-07T09:18:50;44.97;;;24.17;;
7675;SDS011;3880;51.464;-2.566;2022-12-07T09:21:28;42.37;;;23.13;;
7675;SDS011;3880;51.464;-2.566;2022-12-07T09:24:02;50.43;;;23.57;;
7675;SDS011;3880;51.464;-2.566;2022-12-07T09:26:31;36.77;;;22.73;;
7675;SDS011;3880;51.464;-2.566;2022-12-07T09:29:00;48.73;;;24.40;;
7675;SDS011;3880;51.464;-2.566;2022-12-07T09:31:28;40.17;;;24.23;;
7675;SDS011;3880;51.464;-2.566;2022-12-07T09:33:56;42.60;;;21.63;;
7675;SDS011;3880;51.464;-2.566;2022-12-07T09:36:24;42.43;;;24.30;;
7675;SDS011;3880;51.464;-2.566;2022-12-07T09:38:52;43.63;;;23.37;;
7675;SDS011;3880;51.464;-2.566;2022-12-07T09:41:20;36.50;;;22.80;;
7675;SDS011;3880;51.464;-2.566;2022-12-07T09:43:49;38.67;;;21.57;;
7675;SDS011;3880;51.464;-2.566;2022-12-07T09:46:17;36.57;;;20.83;;
7675;SDS011;3880;51.464;-2.566;2022-12-07T09:48:47;34.73;;;20.90;;
7675;SDS011;3880;51.464;-2.566;2022-12-07T09:51:18;31.57;;;20.13;;
7675;SDS011;3880;51.464;-2.566;2022-12-07T09:53:47;36.97;;;20.97;;
7675;SDS011;3880;51.464;-2.566;2022-12-07T09:56:15;32.03;;;21.07;;
7675;SDS011;3880;51.464;-2.566;2022-12-07T09:58:45;30.40;;;19.47;;
7675;SDS011;3880;51.464;-2.566;2022-12-07T10:01:14;30.30;;;17.07;;
7675;SDS011;3880;51.464;-2.566;2022-12-07T10:03:45;28.43;;;16.57;;
7675;SDS011;3880;51.464;-2.566;2022-12-07T10:06:16;32.63;;;16.93;;
7675;SDS011;3880;51.464;-2.566;2022-12-07T10:08:43;26.77;;;16.33;;
7675;SDS011;3880;51.464;-2.566;2022-12-07T10:11:14;35.50;;;21.33;;
7675;SDS011;3880;51.464;-2.566;2022-12-07T10:13:42;35.67;;;22.30;;
7675;SDS011;3880;51.464;-2.566;2022-12-07T10:19:19;42.23;;;24.10;;
7675;SDS011;3880;51.464;-2.566;2022-12-07T10:24:37;37.07;;;22.50;;
7675;SDS011;3880;51.464;-2.566;2022-12-07T10:27:11;59.27;;;20.10;;
7675;SDS011;3880;51.464;-2.566;2022-12-07T10:29:50;37.00;;;19.60;;
7675;SDS011;3880;51.464;-2.566;2022-12-07T10:32:30;37.57;;;20.30;;
7675;SDS011;3880;51.464;-2.566;2022-12-07T10:37:47;25.10;;;16.67;;
7675;SDS011;3880;51.464;-2.566;2022-12-07T10:40:26;28.30;;;16.80;;
7675;SDS011;3880;51.464;-2.566;2022-12-07T10:43:05;28.30;;;18.40;;
7675;SDS011;3880;51.464;-2.566;2022-12-07T10:45:42;29.67;;;17.80;;
7675;SDS011;3880;51.464;-2.566;2022-12-07T10:48:34;31.80;;;17.90;;
7675;SDS011;3880;51.464;-2.566;2022-12-07T10:51:09;23.53;;;16.73;;
7675;SDS011;3880;51.464;-2.566;2022-12-07T10:53:46;34.73;;;18.33;;
7675;SDS011;3880;51.464;-2.566;2022-12-07T10:59:36;27.40;;;17.63;;
7675;SDS011;3880;51.464;-2.566;2022-12-07T11:02:24;33.10;;;15.57;;
7675;SDS011;3880;51.464;-2.566;2022-12-07T11:05:09;21.17;;;14.40;;
7675;SDS011;3880;51.464;-2.566;2022-12-07T11:07:46;25.63;;;16.50;;
7675;SDS011;3880;51.464;-2.566;2022-12-07T11:10:22;19.20;;;11.93;;
7675;SDS011;3880;51.464;-2.566;2022-12-07T11:12:58;18.73;;;11.77;;
7675;SDS011;3880;51.464;-2.566;2022-12-07T11:18:49;17.33;;;11.87;;
7675;SDS011;3880;51.464;-2.566;2022-12-07T11:21:27;26.47;;;12.40;;
7675;SDS011;3880;51.464;-2.566;2022-12-07T11:24:01;21.83;;;13.40;;
7675;SDS011;3880;51.464;-2.566;2022-12-07T11:26:38;23.20;;;14.50;;
7675;SDS011;3880;51.464;-2.566;2022-12-07T11:29:17;22.70;;;13.70;;
7675;SDS011;3880;51.464;-2.566;2022-12-07T11:31:57;24.70;;;14.03;;
7675;SDS011;3880;51.464;-2.566;2022-12-07T11:34:34;21.97;;;12.97;;
7675;SDS011;3880;51.464;-2.566;2022-12-07T11:37:12;21.37;;;14.53;;
7675;SDS011;3880;51.464;-2.566;2022-12-07T11:39:44;22.87;;;14.00;;
7675;SDS011;3880;51.464;-2.566;2022-12-07T11:42:20;16.00;;;10.07;;
7675;SDS011;3880;51.464;-2.566;2022-12-07T11:44:51;16.93;;;9.30;;
7675;SDS011;3880;51.464;-2.566;2022-12-07T11:47:25;17.20;;;7.63;;
7675;SDS011;3880;51.464;-2.566;2022-12-07T11:50:03;12.67;;;7.03;;
7675;SDS011;3880;51.464;-2.566;2022-12-07T11:52:43;17.87;;;7.50;;
7675;SDS011;3880;51.464;-2.566;2022-12-07T11:55:18;13.40;;;6.50;;
7675;SDS011;3880;51.464;-2.566;2022-12-07T11:57:54;14.27;;;6.07;;
7675;SDS011;3880;51.464;-2.566;2022-12-07T12:00:29;15.00;;;6.50;;
7675;SDS011;3880;51.464;-2.566;2022-12-07T12:02:57;12.83;;;5.30;;
7675;SDS011;3880;51.464;-2.566;2022-12-07T12:05:28;16.03;;;7.77;;
7675;SDS011;3880;51.464;-2.566;2022-12-07T12:07:59;13.53;;;6.13;;
7675;SDS011;3880;51.464;-2.566;2022-12-07T12:10:34;17.37;;;7.63;;
7675;SDS011;3880;51.464;-2.566;2022-12-07T12:16:14;13.30;;;7.63;;
7675;SDS011;3880;51.464;-2.566;2022-12-07T12:19:10;15.77;;;7.57;;
7675;SDS011;3880;51.464;-2.566;2022-12-07T12:21:46;15.90;;;8.87;;
7675;SDS011;3880;51.464;-2.566;2022-12-07T12:24:22;15.60;;;7.80;;
7675;SDS011;3880;51.464;-2.566;2022-12-07T12:26:52;21.07;;;8.27;;
7675;SDS011;3880;51.464;-2.566;2022-12-07T12:29:26;16.77;;;8.43;;
7675;SDS011;3880;51.464;-2.566;2022-12-07T12:32:04;16.73;;;8.53;;
7675;SDS011;3880;51.464;-2.566;2022-12-07T12:34:57;12.90;;;8.30;;
7675;SDS011;3880;51.464;-2.566;2022-12-07T12:55:21;14.17;;;7.67;;
7675;SDS011;3880;51.464;-2.566;2022-12-07T12:58:31;12.67;;;7.33;;
7675;SDS011;3880;51.464;-2.566;2022-12-07T13:10:32;19.93;;;7.27;;
7675;SDS011;3880;51.464;-2.566;2022-12-07T13:13:04;11.60;;;7.03;;
7675;SDS011;3880;51.464;-2.566;2022-12-07T13:15:53;25.30;;;8.43;;
7675;SDS011;3880;51.464;-2.566;2022-12-07T13:18:22;17.97;;;8.53;;
7675;SDS011;3880;51.464;-2.566;2022-12-07T13:20:52;22.17;;;8.43;;
7675;SDS011;3880;51.464;-2.566;2022-12-07T13:23:22;12.47;;;7.00;;
7675;SDS011;3880;51.464;-2.566;2022-12-07T13:26:03;16.43;;;7.00;;
7675;SDS011;3880;51.464;-2.566;2022-12-07T13:28:42;12.27;;;6.00;;
7675;SDS011;3880;51.464;-2.566;2022-12-07T13:31:17;16.97;;;6.40;;
7675;SDS011;3880;51.464;-2.566;2022-12-07T13:34:04;17.00;;;7.67;;
7675;SDS011;3880;51.464;-2.566;2022-12-07T13:36:52;14.47;;;7.13;;
7675;SDS011;3880;51.464;-2.566;2022-12-07T13:39:20;8.13;;;4.87;;
7675;SDS011;3880;51.464;-2.566;2022-12-07T13:41:51;13.87;;;5.70;;
7675;SDS011;3880;51.464;-2.566;2022-12-07T13:44:19;6.53;;;4.23;;
7675;SDS011;3880;51.464;-2.566;2022-12-07T13:46:51;13.93;;;5.10;;
7675;SDS011;3880;51.464;-2.566;2022-12-07T13:49:25;10.10;;;5.80;;
7675;SDS011;3880;51.464;-2.566;2022-12-07T13:51:54;14.67;;;6.57;;
7675;SDS011;3880;51.464;-2.566;2022-12-07T13:54:33;10.53;;;4.90;;
7675;SDS011;3880;51.464;-2.566;2022-12-07T13:57:10;19.70;;;5.30;;
7675;SDS011;3880;51.464;-2.566;2022-12-07T13:59:37;12.63;;;5.27;;
7675;SDS011;3880;51.464;-2.566;2022-12-07T14:02:16;12.23;;;7.30;;
7675;SDS011;3880;51.464;-2.566;2022-12-07T14:04:45;12.30;;;6.43;;
7675;SDS011;3880;51.464;-2.566;2022-12-07T14:07:19;14.27;;;6.10;;
7675;SDS011;3880;51.464;-2.566;2022-12-07T14:09:58;8.93;;;5.17;;
7675;SDS011;3880;51.464;-2.566;2022-12-07T14:12:27;13.20;;;5.47;;
7675;SDS011;3880;51.464;-2.566;2022-12-07T14:14:55;10.53;;;4.50;;
7675;SDS011;3880;51.464;-2.566;2022-12-07T14:17:25;7.33;;;4.80;;
7675;SDS011;3880;51.464;-2.566;2022-12-07T14:19:54;12.27;;;4.40;;
7675;SDS011;3880;51.464;-2.566;2022-12-07T14:22:31;25.23;;;15.50;;
7675;SDS011;3880;51.464;-2.566;2022-12-07T14:25:01;9.37;;;5.23;;
7675;SDS011;3880;51.464;-2.566;2022-12-07T14:27:47;9.17;;;4.93;;
7675;SDS011;3880;51.464;-2.566;2022-12-07T14:30:17;9.97;;;4.40;;
7675;SDS011;3880;51.464;-2.566;2022-12-07T14:32:47;7.43;;;4.80;;
7675;SDS011;3880;51.464;-2.566;2022-12-07T14:35:17;12.10;;;5.13;;
7675;SDS011;3880;51.464;-2.566;2022-12-07T14:37:46;12.57;;;5.47;;
7675;SDS011;3880;51.464;-2.566;2022-12-07T14:40:15;13.17;;;6.80;;
7675;SDS011;3880;51.464;-2.566;2022-12-07T14:42:43;12.33;;;6.00;;
7675;SDS011;3880;51.464;-2.566;2022-12-07T14:45:13;22.60;;;6.50;;
7675;SDS011;3880;51.464;-2.566;2022-12-07T14:47:42;13.83;;;7.93;;
7675;SDS011;3880;51.464;-2.566;2022-12-07T14:50:13;11.67;;;6.07;;
7675;SDS011;3880;51.464;-2.566;2022-12-07T14:52:42;15.30;;;6.57;;
7675;SDS011;3880;51.464;-2.566;2022-12-07T14:55:13;16.83;;;5.90;;
7675;SDS011;3880;51.464;-2.566;2022-12-07T14:57:42;14.43;;;6.50;;
7675;SDS011;3880;51.464;-2.566;2022-12-07T15:00:12;15.70;;;6.73;;
7675;SDS011;3880;51.464;-2.566;2022-12-07T15:02:42;11.63;;;5.20;;
7675;SDS011;3880;51.464;-2.566;2022-12-07T15:05:09;10.13;;;5.07;;
7675;SDS011;3880;51.464;-2.566;2022-12-07T15:07:38;8.67;;;4.47;;
7675;SDS011;3880;51.464;-2.566;2022-12-07T15:10:06;12.87;;;5.30;;
7675;SDS011;3880;51.464;-2.566;2022-12-07T15:12:37;15.13;;;6.03;;
7675;SDS011;3880;51.464;-2.566;2022-12-07T15:15:04;10.30;;;5.93;;
7675;SDS011;3880;51.464;-2.566;2022-12-07T15:17:32;7.80;;;5.53;;
7675;SDS011;3880;51.464;-2.566;2022-12-07T15:19:59;11.77;;;5.50;;
7675;SDS011;3880;51.464;-2.566;2022-12-07T15:22:26;11.27;;;6.03;;
7675;SDS011;3880;51.464;-2.566;2022-12-07T15:24:56;15.87;;;7.83;;
7675;SDS011;3880;51.464;-2.566;2022-12-07T15:27:23;14.00;;;7.47;;
7675;SDS011;3880;51.464;-2.566;2022-12-07T15:29:51;17.27;;;7.50;;
7675;SDS011;3880;51.464;-2.566;2022-12-07T15:32:18;16.30;;;7.57;;
7675;SDS011;3880;51.464;-2.566;2022-12-07T15:34:46;22.43;;;8.20;;
7675;SDS011;3880;51.464;-2.566;2022-12-07T15:37:12;15.03;;;8.07;;
7675;SDS011;3880;51.464;-2.566;2022-12-07T15:39:40;16.00;;;7.33;;
7675;SDS011;3880;51.464;-2.566;2022-12-07T15:42:08;12.30;;;7.27;;
7675;SDS011;3880;51.464;-2.566;2022-12-07T15:44:35;15.93;;;7.47;;
7675;SDS011;3880;51.464;-2.566;2022-12-07T15:47:19;21.30;;;7.73;;